Time;durP1;ratioP1;P1;durP2;ratioP2;P2;SDS_P1;SDS_P2;PMS_P1;PMS_P2;Temp;Humidity;BMP_temperature;BMP_pressure;BME280_temperature;BME280_humidity;BME280_pressure;Samples;Min_cycle;Max_cycle;Signal;HPM_P1;HPM_P2
2022/08/15 00:02:04;;;;;;;44.90;24.42;;;27.50;99.90;;;;;;4994530;28;20030;-66
2022/08/15 00:04:31;;;;;;;40.85;22.70;;;27.60;99.90;;;;;;4994698;28;20098;-70
2022/08/15 00:06:57;;;;;;;34.20;20.05;;;27.60;99.90;;;;;;4994628;28;20031;-65
2022/08/15 00:09:24;;;;;;;34.78;20.60;;;27.70;99.90;;;;;;5000643;28;20026;-66
2022/08/15 00:11:54;;;;;;;38.17;19.42;;;27.80;99.90;;;;;;5012034;28;20037;-66
2022/08/15 00:14:26;;;;;;;33.53;19.33;;;27.80;99.90;;;;;;5008305;28;20030;-66
2022/08/15 00:16:52;;;;;;;29.75;18.88;;;27.80;99.90;;;;;;5000004;28;20137;-66
2022/08/15 00:19:23;;;;;;;31.52;17.67;;;27.80;99.90;;;;;;5014182;28;20041;-66
2022/08/15 00:21:54;;;;;;;39.17;17.75;;;27.80;99.90;;;;;;5014204;28;20160;-63
2022/08/15 00:24:26;;;;;;;32.30;17.92;;;27.80;99.90;;;;;;5014155;28;20026;-63
2022/08/15 00:26:53;;;;;;;;;;;27.80;99.90;;;;;;5013382;28;20021;-63
2022/08/15 00:29:22;;;;;;;29.52;16.40;;;27.80;99.90;;;;;;5005760;28;20009;-63
2022/08/15 00:31:52;;;;;;;23.67;15.85;;;27.90;99.90;;;;;;4998697;28;20030;-63
2022/08/15 00:34:19;;;;;;;30.05;15.13;;;27.90;99.90;;;;;;5005295;28;20088;-63
2022/08/15 00:36:48;;;;;;;31.95;16.38;;;27.80;99.90;;;;;;5013559;28;20030;-63
2022/08/15 00:39:20;;;;;;;36.45;15.95;;;27.80;99.90;;;;;;5013536;28;20049;-63
2022/08/15 00:41:48;;;;;;;24.92;15.00;;;27.80;99.90;;;;;;4998437;28;20073;-63
2022/08/15 00:44:20;;;;;;;35.80;15.85;;;27.80;99.90;;;;;;4993867;28;20034;-63
2022/08/15 00:46:53;;;;;;;29.13;16.05;;;27.80;99.90;;;;;;4993940;28;20026;-64
2022/08/15 00:49:19;;;;;;;;;;;27.70;99.90;;;;;;4994213;28;20403;-63
2022/08/15 00:51:51;;;;;;;23.90;13.40;;;27.70;99.90;;;;;;4993901;28;20359;-65
2022/08/15 00:54:34;;;;;;;27.65;16.40;;;27.80;99.90;;;;;;4993909;28;20494;-65
2022/08/15 00:57:07;;;;;;;23.75;16.40;;;27.70;99.90;;;;;;4993806;28;20030;-65
2022/08/15 00:59:37;;;;;;;31.83;17.05;;;27.80;99.90;;;;;;4993741;28;20084;-65
2022/08/15 01:02:08;;;;;;;30.48;16.45;;;27.90;99.90;;;;;;4993883;28;20090;-65
2022/08/15 01:04:37;;;;;;;27.17;17.73;;;28.00;99.90;;;;;;4994107;28;20108;-65
2022/08/15 01:07:06;;;;;;;32.40;18.25;;;28.00;99.90;;;;;;4993836;28;20066;-65
2022/08/15 01:09:35;;;;;;;31.85;21.08;;;28.30;99.90;;;;;;4994030;28;20507;-65
2022/08/15 01:12:16;;;;;;;29.80;15.82;;;28.30;99.90;;;;;;4993924;28;20037;-66
2022/08/15 01:14:49;;;;;;;34.63;17.65;;;28.30;99.90;;;;;;4993410;28;20109;-65
2022/08/15 01:17:16;;;;;;;26.10;15.02;;;28.20;99.90;;;;;;4993532;28;20050;-66
2022/08/15 01:19:51;;;;;;;26.95;15.85;;;28.20;99.90;;;;;;4993595;28;20029;-63
2022/08/15 01:22:30;;;;;;;25.27;16.58;;;28.10;99.90;;;;;;4996019;28;20098;-64
2022/08/15 01:25:20;;;;;;;33.55;19.20;;;28.10;99.90;;;;;;4998337;28;20018;-63
2022/08/15 01:27:55;;;;;;;31.73;16.15;;;28.10;99.90;;;;;;4998100;28;20085;-64
2022/08/15 01:30:26;;;;;;;31.63;15.25;;;28.10;99.90;;;;;;4997818;28;20030;-64
2022/08/15 01:32:54;;;;;;;26.63;16.00;;;28.30;99.90;;;;;;4998215;28;20430;-64
2022/08/15 01:35:21;;;;;;;30.92;17.25;;;28.30;99.90;;;;;;4997804;28;20033;-65
2022/08/15 01:37:51;;;;;;;104.10;71.30;;;28.40;99.90;;;;;;4997705;28;20019;-65
2022/08/15 01:40:25;;;;;;;28.38;18.35;;;28.60;99.90;;;;;;4998053;28;20030;-65
2022/08/15 01:42:53;;;;;;;54.55;34.55;;;28.60;99.90;;;;;;4998203;28;20069;-65
2022/08/15 01:45:24;;;;;;;35.35;18.35;;;28.70;99.90;;;;;;4998117;28;20026;-64
2022/08/15 01:47:58;;;;;;;32.72;16.38;;;28.70;99.90;;;;;;4998110;28;20026;-62
2022/08/15 01:50:29;;;;;;;33.42;18.50;;;28.80;99.90;;;;;;4997762;28;20026;-63
2022/08/15 01:53:05;;;;;;;27.47;16.73;;;28.90;99.90;;;;;;4998080;28;20023;-63
2022/08/15 01:55:45;;;;;;;28.90;15.70;;;29.00;99.90;;;;;;4997629;28;20105;-62
2022/08/15 01:58:12;;;;;;;26.13;15.23;;;29.00;99.90;;;;;;4997280;28;20030;-63
2022/08/15 02:00:48;;;;;;;24.42;14.82;;;29.00;99.90;;;;;;4997331;28;20033;-63
2022/08/15 02:03:15;;;;;;;24.83;14.52;;;29.00;99.90;;;;;;4997484;28;20030;-63
2022/08/15 02:05:41;;;;;;;25.30;14.57;;;29.00;99.90;;;;;;4997373;28;20098;-63
2022/08/15 02:08:08;;;;;;;25.65;15.88;;;29.00;99.90;;;;;;4997644;28;20045;-62
2022/08/15 02:10:34;;;;;;;23.75;15.48;;;29.00;99.90;;;;;;4997532;28;20473;-63
2022/08/15 02:13:01;;;;;;;24.75;15.05;;;29.00;99.90;;;;;;4997665;28;20022;-63
2022/08/15 02:15:27;;;;;;;28.73;14.65;;;29.10;99.90;;;;;;4997208;28;20082;-63
2022/08/15 02:17:54;;;;;;;153.75;23.33;;;29.10;99.90;;;;;;4997176;28;20499;-62
2022/08/15 02:20:23;;;;;;;23.52;14.27;;;29.10;99.90;;;;;;4997313;28;20019;-63
2022/08/15 02:22:49;;;;;;;24.40;13.45;;;29.20;99.90;;;;;;4997056;28;20022;-63
2022/08/15 02:25:16;;;;;;;1276.25;106.60;;;29.30;99.90;;;;;;4996749;28;20054;-63
2022/08/15 02:30:17;;;;;;;211.98;32.15;;;29.60;99.90;;;;;;5075917;22;20045;-62
2022/08/15 02:32:45;;;;;;;23.63;12.35;;;29.70;99.90;;;;;;5056249;28;20037;-64
2022/08/15 02:35:15;;;;;;;82.30;55.33;;;29.70;99.90;;;;;;5055736;28;20067;-64
2022/08/15 02:37:43;;;;;;;60.42;38.50;;;29.70;99.90;;;;;;5055959;28;20113;-64
2022/08/15 02:40:14;;;;;;;22.67;13.18;;;29.80;99.90;;;;;;5056570;28;20091;-63
2022/08/15 02:42:44;;;;;;;14.73;10.60;;;29.90;99.90;;;;;;5056279;28;20458;-63
2022/08/15 02:45:11;;;;;;;24.27;11.68;;;29.90;99.90;;;;;;5056058;28;20021;-63
2022/08/15 02:47:42;;;;;;;33.28;23.95;;;29.90;99.90;;;;;;5056398;28;20031;-63
2022/08/15 02:50:09;;;;;;;27.17;14.98;;;29.90;99.90;;;;;;5055557;28;20025;-63
2022/08/15 02:52:40;;;;;;;24.70;14.27;;;29.80;99.90;;;;;;5055281;28;20104;-64
2022/08/15 02:55:09;;;;;;;36.80;18.33;;;29.80;99.90;;;;;;5060786;28;20081;-64
2022/08/15 02:57:35;;;;;;;19.70;13.50;;;29.80;99.90;;;;;;5052497;28;20036;-64
2022/08/15 03:00:04;;;;;;;20.75;12.95;;;29.70;99.90;;;;;;5065162;28;20146;-64
2022/08/15 03:02:31;;;;;;;20.13;12.27;;;29.80;99.90;;;;;;5075270;22;20089;-64
2022/08/15 03:04:59;;;;;;;21.70;12.10;;;29.80;99.90;;;;;;5055943;28;20111;-64
2022/08/15 03:07:26;;;;;;;32.42;17.88;;;29.90;99.90;;;;;;5055570;28;20118;-65
2022/08/15 03:09:53;;;;;;;33.70;19.05;;;30.10;99.90;;;;;;5055879;28;20032;-65
2022/08/15 03:12:23;;;;;;;41.70;17.02;;;30.10;99.90;;;;;;5055718;28;20470;-64
2022/08/15 03:14:50;;;;;;;31.45;14.73;;;30.10;99.90;;;;;;5055597;28;20037;-64
2022/08/15 03:17:17;;;;;;;21.42;14.55;;;30.10;99.90;;;;;;5055206;28;20543;-64
2022/08/15 03:19:43;;;;;;;23.95;14.55;;;30.10;99.90;;;;;;5055371;28;20025;-63
2022/08/15 03:22:10;;;;;;;19.77;13.25;;;30.20;99.90;;;;;;5055070;28;20029;-64
2022/08/15 03:24:36;;;;;;;20.52;11.77;;;30.20;99.90;;;;;;5054958;28;20105;-64
2022/08/15 03:27:04;;;;;;;25.77;14.25;;;30.30;99.90;;;;;;5055025;28;20486;-64
2022/08/15 03:29:30;;;;;;;21.65;10.85;;;30.30;99.90;;;;;;5054979;28;20099;-64
2022/08/15 03:31:57;;;;;;;20.38;12.00;;;30.20;99.90;;;;;;5054752;28;20078;-63
2022/08/15 03:34:26;;;;;;;24.20;12.60;;;30.30;99.90;;;;;;5054603;28;20025;-63
2022/08/15 03:36:53;;;;;;;18.02;11.50;;;30.30;99.90;;;;;;5054560;28;20032;-64
2022/08/15 03:39:20;;;;;;;14.90;9.77;;;30.40;99.90;;;;;;5054518;28;20017;-64
2022/08/15 03:41:47;;;;;;;11.57;7.55;;;30.60;99.90;;;;;;5054520;28;20021;-64
2022/08/15 03:44:13;;;;;;;19.40;8.18;;;30.80;99.90;;;;;;5054136;28;20021;-64
2022/08/15 03:46:40;;;;;;;19.23;10.43;;;31.00;99.90;;;;;;5054391;28;20035;-64
2022/08/15 03:49:06;;;;;;;23.65;11.93;;;31.10;99.90;;;;;;5054394;28;20094;-64
2022/08/15 03:51:33;;;;;;;15.60;9.77;;;31.10;99.90;;;;;;5054169;28;20028;-64
2022/08/15 03:54:00;;;;;;;18.65;8.95;;;31.00;99.90;;;;;;5054285;28;20021;-64
2022/08/15 03:56:30;;;;;;;15.70;9.07;;;31.00;99.90;;;;;;5054216;28;20105;-64
2022/08/15 03:58:58;;;;;;;20.17;9.90;;;31.00;99.90;;;;;;5045023;28;20033;-62
2022/08/15 04:01:30;;;;;;;20.25;9.80;;;31.20;99.90;;;;;;5044812;28;20108;-62
2022/08/15 04:03:57;;;;;;;;;;;31.40;99.90;;;;;;5054837;28;20100;-63
2022/08/15 04:06:25;;;;;;;17.13;9.23;;;31.40;99.90;;;;;;5054046;28;19919;-63
2022/08/15 04:08:53;;;;;;;17.48;9.30;;;31.30;99.90;;;;;;5050870;28;20160;-63
2022/08/15 04:11:23;;;;;;;13.27;7.75;;;31.20;99.90;;;;;;5042907;28;20057;-63
2022/08/15 04:13:50;;;;;;;14.52;7.93;;;31.10;99.90;;;;;;5045313;28;20041;-62
2022/08/15 04:16:17;;;;;;;16.70;8.82;;;31.20;99.90;;;;;;5047075;28;20080;-63
2022/08/15 04:18:44;;;;;;;15.68;7.70;;;31.10;99.90;;;;;;5042471;28;20036;-73
2022/08/15 04:21:12;;;;;;;10.73;6.50;;;31.10;99.90;;;;;;5043867;28;20567;-73
2022/08/15 04:23:42;;;;;;;14.38;8.07;;;31.10;99.90;;;;;;5040902;28;20116;-70
2022/08/15 04:26:09;;;;;;;14.73;9.07;;;31.20;99.90;;;;;;5044383;28;20021;-73
2022/08/15 04:28:36;;;;;;;14.80;8.13;;;31.20;99.90;;;;;;5040147;28;20021;-73
2022/08/15 04:31:06;;;;;;;13.75;8.00;;;31.20;99.90;;;;;;5042817;28;20029;-72
2022/08/15 04:33:34;;;;;;;15.30;8.48;;;31.20;99.90;;;;;;5049595;28;20036;-66
2022/08/15 04:36:07;;;;;;;13.80;8.10;;;31.10;99.90;;;;;;5054894;28;20389;-66
2022/08/15 04:38:33;;;;;;;16.73;9.10;;;31.20;99.90;;;;;;5048283;28;20163;-66
2022/08/15 04:41:01;;;;;;;16.38;8.63;;;31.10;99.90;;;;;;5039405;28;20022;-67
2022/08/15 04:43:28;;;;;;;12.90;7.63;;;31.10;99.90;;;;;;5033632;28;20032;-67
2022/08/15 04:45:54;;;;;;;14.75;8.15;;;31.10;99.90;;;;;;5049064;28;20029;-66
2022/08/15 04:48:21;;;;;;;14.52;7.68;;;31.20;99.90;;;;;;5033360;28;20025;-66
2022/08/15 04:50:50;;;;;;;12.82;7.25;;;31.20;99.90;;;;;;5033571;28;20104;-66
2022/08/15 04:53:18;;;;;;;13.30;7.85;;;31.30;99.90;;;;;;5038120;28;20027;-66
2022/08/15 04:55:47;;;;;;;10.75;7.20;;;31.40;99.90;;;;;;5043816;28;20025;-64
2022/08/15 04:58:15;;;;;;;11.75;7.53;;;31.40;99.90;;;;;;5043694;28;20461;-66
2022/08/15 05:00:51;;;;;;;14.30;7.65;;;31.40;99.90;;;;;;5043509;28;20064;-66
2022/08/15 05:03:20;;;;;;;14.80;6.95;;;31.40;99.90;;;;;;5042982;28;20076;-66
2022/08/15 05:05:53;;;;;;;12.95;7.05;;;31.40;99.90;;;;;;5041706;28;20378;-65
2022/08/15 05:08:25;;;;;;;12.57;6.65;;;31.60;99.90;;;;;;5041239;28;20063;-66
2022/08/15 05:10:57;;;;;;;41.03;24.02;;;31.90;99.90;;;;;;5041689;28;20112;-65
2022/08/15 05:13:29;;;;;;;139.32;84.32;;;32.10;99.90;;;;;;5040427;28;20033;-64
2022/08/15 05:15:59;;;;;;;120.22;76.47;;;32.20;99.90;;;;;;5041117;28;20025;-65
2022/08/15 05:18:27;;;;;;;14.65;10.15;;;32.20;99.90;;;;;;5043894;28;20017;-67
2022/08/15 05:20:55;;;;;;;19.70;11.82;;;32.30;99.90;;;;;;5042405;28;20022;-65
2022/08/15 05:23:23;;;;;;;17.58;11.02;;;32.30;99.90;;;;;;5041487;28;20021;-65
2022/08/15 05:25:53;;;;;;;17.00;7.50;;;32.50;99.90;;;;;;5042704;28;20023;-65
2022/08/15 05:28:20;;;;;;;17.55;8.98;;;32.60;99.90;;;;;;5046280;28;20036;-66
2022/08/15 05:30:48;;;;;;;9.20;5.65;;;32.70;99.90;;;;;;5034166;28;20063;-65
2022/08/15 05:33:18;;;;;;;64.40;46.35;;;32.90;99.90;;;;;;5033760;28;20552;-64
2022/08/15 05:35:49;;;;;;;34.88;26.63;;;32.90;99.90;;;;;;5033842;28;20033;-65
2022/08/15 05:38:21;;;;;;;18.15;12.57;;;33.10;99.90;;;;;;5033847;28;20482;-65
2022/08/15 05:40:51;;;;;;;;;;;33.10;99.90;;;;;;5034048;28;20029;-65
2022/08/15 05:43:58;;;;;;;11.02;6.53;;;33.10;99.90;;;;;;5040656;28;19909;-65
2022/08/15 05:46:36;;;;;;;31.60;17.63;;;33.10;99.90;;;;;;4990041;28;20038;-66
2022/08/15 05:49:18;;;;;;;18.35;11.98;;;33.00;99.90;;;;;;5044428;23;20045;-65
2022/08/15 05:51:47;;;;;;;;;;;32.90;99.10;;;;;;5042723;28;20489;-65
2022/08/15 05:54:32;;;;;;;13.65;7.28;;;32.90;99.70;;;;;;5053006;28;19940;-65
2022/08/15 05:56:58;;;;;;;9.25;4.85;;;33.00;99.10;;;;;;5052955;28;20025;-65
2022/08/15 05:59:38;;;;;;;8.90;5.68;;;33.10;99.30;;;;;;5052892;28;20025;-65
2022/08/15 06:02:16;;;;;;;6.35;4.70;;;33.20;97.80;;;;;;5052545;28;20021;-65
2022/08/15 06:04:58;;;;;;;9.15;5.65;;;33.40;97.30;;;;;;5039322;28;20421;-65
2022/08/15 06:07:25;;;;;;;10.30;5.90;;;33.30;97.40;;;;;;5032590;28;20521;-65
2022/08/15 06:10:01;;;;;;;8.80;6.28;;;33.10;97.10;;;;;;5036161;28;20029;-65
2022/08/15 06:12:48;;;;;;;9.85;6.53;;;33.10;97.60;;;;;;5035915;28;20018;-66
2022/08/15 06:15:14;;;;;;;15.55;5.75;;;33.10;97.80;;;;;;4955688;29;20171;-66
2022/08/15 06:17:44;;;;;;;204.63;161.23;;;33.10;97.70;;;;;;4955455;29;20090;-66
2022/08/15 06:20:14;;;;;;;128.02;93.93;;;33.10;96.50;;;;;;4955895;29;20477;-66
2022/08/15 06:22:54;;;;;;;39.00;27.95;;;33.00;96.70;;;;;;4955780;29;20595;-65
2022/08/15 06:25:32;;;;;;;35.63;18.05;;;32.90;96.50;;;;;;4955751;29;20079;-65
2022/08/15 06:28:28;;;;;;;10.40;7.25;;;32.90;96.70;;;;;;4955567;29;20031;-65
2022/08/15 06:31:08;;;;;;;141.77;42.28;;;33.00;96.20;;;;;;4955520;29;20488;-65
2022/08/15 06:34:00;;;;;;;24.05;15.27;;;33.20;95.10;;;;;;4955577;29;20457;-65
2022/08/15 06:36:41;;;;;;;27.75;14.90;;;33.30;95.60;;;;;;4955432;29;20032;-66
2022/08/15 06:39:16;;;;;;;26.52;8.05;;;33.30;96.60;;;;;;4955472;29;20039;-66
2022/08/15 06:42:12;;;;;;;10.25;5.55;;;33.20;96.30;;;;;;4955476;29;20058;-67
2022/08/15 06:44:38;;;;;;;8.23;4.75;;;33.20;95.60;;;;;;4898308;29;20097;-65
2022/08/15 06:47:07;;;;;;;11.30;6.00;;;33.10;94.90;;;;;;4898200;29;20063;-66
2022/08/15 06:49:40;;;;;;;11.68;5.50;;;33.10;95.60;;;;;;4898274;29;20060;-66
2022/08/15 06:52:08;;;;;;;8.82;5.15;;;33.10;96.10;;;;;;4898288;29;20482;-66
2022/08/15 06:54:35;;;;;;;9.82;4.72;;;33.10;96.00;;;;;;4898064;29;20561;-65
2022/08/15 06:57:13;;;;;;;11.63;8.00;;;33.10;95.60;;;;;;4898279;29;20044;-65
2022/08/15 06:59:52;;;;;;;26.58;14.88;;;33.20;94.50;;;;;;4898105;29;20059;-64
2022/08/15 07:02:39;;;;;;;43.83;25.65;;;33.50;95.60;;;;;;4898148;29;20486;-66
2022/08/15 07:05:14;;;;;;;27.85;16.63;;;33.60;97.20;;;;;;4897803;29;20035;-66
2022/08/15 07:08:01;;;;;;;22.58;13.75;;;33.60;97.20;;;;;;4897945;29;20068;-66
2022/08/15 07:10:28;;;;;;;19.40;11.75;;;33.60;97.70;;;;;;4900052;28;20040;-66
2022/08/15 07:13:01;;;;;;;20.90;12.00;;;33.40;97.50;;;;;;4974239;28;20045;-66
2022/08/15 07:15:35;;;;;;;25.17;11.35;;;33.40;97.00;;;;;;4974107;28;20611;-66
2022/08/15 07:18:09;;;;;;;16.35;9.55;;;33.40;97.30;;;;;;4974084;28;20043;-65
2022/08/15 07:20:36;;;;;;;23.45;13.00;;;33.10;96.80;;;;;;4976058;28;20054;-65
2022/08/15 07:23:24;;;;;;;26.00;16.25;;;33.10;98.00;;;;;;5034750;28;20048;-65
2022/08/15 07:25:53;;;;;;;26.17;16.05;;;32.90;99.50;;;;;;5035015;28;20014;-65
2022/08/15 07:28:27;;;;;;;31.80;21.70;;;32.80;99.90;;;;;;5034637;28;20033;-65
2022/08/15 07:30:57;;;;;;;28.15;17.05;;;32.60;99.90;;;;;;5034778;28;20022;-65
2022/08/15 07:33:44;;;;;;;26.42;14.98;;;32.50;99.90;;;;;;5034488;28;20040;-66
2022/08/15 07:36:32;;;;;;;21.90;14.00;;;32.50;99.90;;;;;;5034697;28;20022;-65
2022/08/15 07:38:58;;;;;;;19.80;14.07;;;32.70;99.90;;;;;;5034549;28;20029;-65
2022/08/15 07:41:41;;;;;;;21.83;14.30;;;32.80;99.90;;;;;;5034561;28;20025;-65
2022/08/15 07:44:24;;;;;;;33.50;20.63;;;32.90;99.90;;;;;;5034289;28;20029;-65
2022/08/15 07:46:58;;;;;;;25.27;16.15;;;33.00;99.90;;;;;;5034395;28;20043;-64
2022/08/15 07:49:29;;;;;;;30.25;20.55;;;33.00;99.90;;;;;;5032922;28;20572;-64
2022/08/15 07:52:01;;;;;;;40.58;23.95;;;33.10;99.90;;;;;;5034427;28;20034;-65
2022/08/15 07:54:32;;;;;;;44.63;23.73;;;33.10;99.90;;;;;;5034473;28;20083;-65
2022/08/15 07:57:02;;;;;;;;;;;33.20;99.90;;;;;;5034663;28;20029;-66
2022/08/15 07:59:35;;;;;;;29.58;19.80;;;33.30;99.90;;;;;;5034272;28;19915;-64
2022/08/15 08:02:33;;;;;;;23.42;16.63;;;33.30;99.90;;;;;;5034141;28;20083;-65
2022/08/15 08:05:01;;;;;;;19.90;13.45;;;33.30;99.30;;;;;;5033608;28;20038;-63
2022/08/15 08:07:35;;;;;;;28.13;16.67;;;33.10;99.20;;;;;;5034068;28;20380;-65
2022/08/15 08:10:08;;;;;;;24.85;16.48;;;33.10;99.90;;;;;;5033936;28;20100;-63
2022/08/15 08:12:54;;;;;;;24.83;16.55;;;33.20;99.90;;;;;;5031552;28;20021;-64
2022/08/15 08:15:28;;;;;;;28.98;16.52;;;33.20;99.90;;;;;;5024763;28;20100;-63
2022/08/15 08:18:03;;;;;;;22.77;15.93;;;33.20;99.90;;;;;;5022414;28;20472;-63
2022/08/15 08:20:37;;;;;;;27.98;16.33;;;33.10;99.80;;;;;;5022442;28;20083;-63
2022/08/15 08:23:16;;;;;;;27.33;16.17;;;33.00;99.80;;;;;;5024844;28;20029;-63
2022/08/15 08:25:55;;;;;;;26.10;18.40;;;32.90;99.80;;;;;;5023913;28;20478;-62
2022/08/15 08:28:49;;;;;;;34.72;23.38;;;32.80;99.90;;;;;;5023213;28;20021;-63
2022/08/15 08:31:22;;;;;;;24.83;16.17;;;32.70;99.90;;;;;;5026320;28;20033;-63
2022/08/15 08:34:05;;;;;;;30.67;19.40;;;32.70;99.90;;;;;;5023315;28;20061;-63
2022/08/15 08:37:11;;;;;;;33.17;20.25;;;32.60;99.90;;;;;;5023118;28;20036;-63
2022/08/15 08:39:43;;;;;;;27.92;18.05;;;32.50;99.90;;;;;;5022351;28;20025;-63
2022/08/15 08:42:45;;;;;;;31.30;18.30;;;32.40;99.90;;;;;;5024624;28;20017;-63
2022/08/15 08:45:15;;;;;;;;;;;32.40;99.90;;;;;;5023894;28;20034;-62
2022/08/15 08:48:21;;;;;;;38.03;23.70;;;32.30;99.90;;;;;;5022025;28;20192;-63
2022/08/15 08:51:04;;;;;;;34.85;21.00;;;32.20;99.90;;;;;;4970525;28;20070;-62
2022/08/15 08:53:51;;;;;;;33.85;20.00;;;32.20;99.90;;;;;;4971158;28;20535;-62
2022/08/15 08:56:26;;;;;;;43.20;20.95;;;32.10;99.90;;;;;;4971919;28;20093;-63
2022/08/15 08:59:16;;;;;;;34.03;21.95;;;32.10;99.90;;;;;;4971799;28;20594;-63
2022/08/15 09:01:45;;;;;;;36.20;25.27;;;32.10;99.90;;;;;;4971551;28;20082;-63
2022/08/15 09:04:18;;;;;;;97.95;63.28;;;32.10;99.90;;;;;;4972116;28;20110;-65
2022/08/15 09:06:48;;;;;;;165.30;118.05;;;32.10;99.90;;;;;;4972541;28;20026;-62
2022/08/15 09:09:30;;;;;;;164.02;114.10;;;32.10;99.90;;;;;;4972327;28;20606;-63
2022/08/15 09:15:23;;;;;;;87.28;55.30;;;32.10;99.90;;;;;;4945319;29;20102;-63
2022/08/15 09:17:56;;;;;;;56.80;34.60;;;31.90;99.90;;;;;;4938295;29;20039;-63
2022/08/15 09:20:31;;;;;;;61.72;31.70;;;31.70;99.90;;;;;;4952852;29;20035;-63
2022/08/15 09:22:59;;;;;;;42.65;24.90;;;31.50;99.90;;;;;;4952491;29;20042;-63
2022/08/15 09:25:30;;;;;;;47.03;25.33;;;31.20;99.90;;;;;;4944681;29;20492;-63
2022/08/15 09:28:09;;;;;;;42.00;25.58;;;31.20;99.90;;;;;;4939658;29;20461;-64
2022/08/15 09:30:37;;;;;;;29.35;19.08;;;31.10;99.90;;;;;;4938960;29;20032;-64
2022/08/15 09:33:24;;;;;;;30.20;18.55;;;30.90;99.90;;;;;;4933841;29;20456;-65
2022/08/15 09:35:52;;;;;;;30.10;15.85;;;30.80;99.90;;;;;;4934114;29;20077;-66
2022/08/15 09:38:19;;;;;;;28.95;19.60;;;30.80;99.90;;;;;;4933570;29;20031;-66
2022/08/15 09:41:08;;;;;;;35.42;20.48;;;30.70;99.90;;;;;;4934053;29;20398;-66
2022/08/15 09:43:34;;;;;;;38.20;20.73;;;30.70;99.90;;;;;;4935778;29;20019;-66
2022/08/15 09:46:10;;;;;;;47.67;21.83;;;30.70;99.90;;;;;;4979242;28;20034;-65
2022/08/15 09:49:01;;;;;;;56.50;26.15;;;30.50;99.90;;;;;;4995472;28;20046;-65
2022/08/15 09:51:38;;;;;;;63.67;24.75;;;30.30;99.90;;;;;;5001954;28;20037;-65
2022/08/15 09:54:26;;;;;;;50.17;20.33;;;30.10;99.90;;;;;;5020543;28;20041;-63
2022/08/15 09:57:23;;;;;;;46.95;18.08;;;29.70;99.90;;;;;;5020359;28;20053;-63
2022/08/15 09:59:59;;;;;;;41.42;18.65;;;29.50;99.90;;;;;;5019787;28;20022;-64
2022/08/15 10:02:32;;;;;;;56.83;24.00;;;29.20;99.90;;;;;;5024886;28;20026;-66
2022/08/15 10:05:00;;;;;;;40.47;18.30;;;29.00;99.90;;;;;;5027292;28;20044;-63
2022/08/15 10:07:55;;;;;;;43.33;19.45;;;28.60;99.90;;;;;;5030849;28;20029;-64
2022/08/15 10:10:24;;;;;;;37.13;17.85;;;28.30;99.90;;;;;;5025860;28;20128;-64
2022/08/15 10:13:23;;;;;;;38.95;18.15;;;28.30;99.90;;;;;;5027310;28;20041;-63
2022/08/15 10:15:50;;;;;;;40.42;14.70;;;28.40;99.90;;;;;;5026790;28;20116;-64
2022/08/15 10:18:26;;;;;;;22.88;10.85;;;28.50;99.90;;;;;;5024529;28;20022;-64
2022/08/15 10:21:12;;;;;;;15.45;8.82;;;28.60;99.90;;;;;;5030634;28;20021;-65
2022/08/15 10:23:39;;;;;;;14.68;7.72;;;28.40;99.90;;;;;;5036182;28;20394;-64
2022/08/15 10:26:28;;;;;;;16.02;7.72;;;28.30;99.90;;;;;;5031827;28;20072;-64
2022/08/15 10:29:31;;;;;;;17.52;8.40;;;28.30;99.90;;;;;;5028172;28;20466;-65
2022/08/15 10:32:00;;;;;;;11.95;7.70;;;28.50;99.90;;;;;;5027031;28;20029;-65
2022/08/15 10:34:41;;;;;;;16.00;8.90;;;28.70;99.90;;;;;;5027049;28;20045;-65
2022/08/15 10:37:18;;;;;;;15.55;9.20;;;28.60;99.90;;;;;;5023458;28;20475;-65
2022/08/15 10:40:02;;;;;;;13.02;7.65;;;28.60;99.90;;;;;;5024197;28;20029;-65
2022/08/15 10:42:39;;;;;;;10.55;5.20;;;28.50;99.90;;;;;;5027080;28;20028;-64
2022/08/15 10:45:35;;;;;;;8.30;5.70;;;28.30;99.90;;;;;;5029130;28;20027;-66
2022/08/15 10:48:24;;;;;;;7.13;5.22;;;28.30;99.90;;;;;;5026229;28;20108;-65
2022/08/15 10:51:01;;;;;;;11.85;4.90;;;28.30;99.90;;;;;;5026766;28;20064;-65
2022/08/15 10:53:36;;;;;;;8.02;4.85;;;28.30;99.90;;;;;;5027800;28;20045;-65
2022/08/15 10:56:25;;;;;;;9.80;5.35;;;28.30;99.90;;;;;;5020430;28;20052;-65
2022/08/15 10:59:14;;;;;;;11.00;5.30;;;28.20;99.90;;;;;;5027702;28;20065;-65
2022/08/15 11:01:44;;;;;;;66.53;49.70;;;28.10;99.90;;;;;;5023758;28;20018;-64
2022/08/15 11:04:26;;;;;;;23.00;15.73;;;28.10;99.90;;;;;;5030773;28;20032;-63
2022/08/15 11:06:53;;;;;;;47.70;32.10;;;28.00;99.90;;;;;;5025309;28;20057;-68
2022/08/15 11:09:22;;;;;;;133.82;75.45;;;28.00;99.90;;;;;;5027049;28;20017;-68
2022/08/15 11:11:57;;;;;;;14.52;7.65;;;28.00;99.90;;;;;;5023668;28;20528;-69
2022/08/15 11:14:29;;;;;;;14.45;7.80;;;28.00;99.90;;;;;;5026157;28;20397;-67
2022/08/15 11:17:00;;;;;;;11.77;6.97;;;28.00;99.90;;;;;;5025021;28;20030;-69
2022/08/15 11:19:30;;;;;;;14.98;6.13;;;28.00;99.90;;;;;;5023803;28;20108;-67
2022/08/15 11:22:05;;;;;;;7.43;5.13;;;27.90;99.90;;;;;;5025026;28;20048;-66
2022/08/15 11:24:33;;;;;;;6.18;4.30;;;27.70;99.90;;;;;;5024386;28;20072;-66
2022/08/15 11:27:20;;;;;;;6.13;4.18;;;27.40;99.90;;;;;;5024556;28;20092;-67
2022/08/15 11:29:49;;;;;;;9.85;5.72;;;27.20;99.90;;;;;;5025985;28;20022;-67
2022/08/15 11:32:36;;;;;;;9.48;5.03;;;27.00;99.90;;;;;;5024564;28;20540;-68
2022/08/15 11:35:22;;;;;;;5.13;3.90;;;27.10;99.90;;;;;;5026474;28;20033;-66
2022/08/15 11:37:49;;;;;;;12.45;8.20;;;26.90;99.90;;;;;;5025608;28;20022;-68
2022/08/15 11:40:32;;;;;;;8.05;6.00;;;26.80;99.90;;;;;;5025180;28;20182;-68
2022/08/15 11:43:02;;;;;;;5.63;3.47;;;26.80;99.90;;;;;;5023850;28;20022;-66
2022/08/15 11:45:36;;;;;;;4.60;3.15;;;26.70;99.90;;;;;;5024662;28;20013;-68
2022/08/15 11:48:11;;;;;;;8.50;4.00;;;26.40;99.90;;;;;;5025266;28;20108;-68
2022/08/15 11:50:41;;;;;;;5.45;3.67;;;26.30;99.90;;;;;;5024746;28;20079;-68
2022/08/15 11:53:11;;;;;;;11.70;3.95;;;26.10;99.90;;;;;;5023871;28;20029;-68
2022/08/15 11:55:39;;;;;;;8.95;3.70;;;26.20;99.90;;;;;;5024584;28;20112;-67
2022/08/15 11:58:44;;;;;;;8.95;3.50;;;26.20;99.90;;;;;;5025675;28;20022;-67
2022/08/15 12:01:32;;;;;;;11.55;4.68;;;26.10;99.90;;;;;;4962306;28;20417;-68
2022/08/15 12:04:06;;;;;;;45.75;20.75;;;26.10;99.90;;;;;;4964640;28;20488;-67
2022/08/15 12:06:41;;;;;;;17.83;7.63;;;26.10;99.90;;;;;;4967432;28;20046;-68
2022/08/15 12:09:28;;;;;;;9.82;5.00;;;26.10;99.90;;;;;;4965959;28;20551;-69
2022/08/15 12:11:54;;;;;;;12.88;6.78;;;26.10;99.90;;;;;;4973544;28;20061;-68
2022/08/15 12:14:25;;;;;;;21.83;8.65;;;26.20;99.90;;;;;;4972779;28;20234;-68
2022/08/15 12:16:53;;;;;;;14.70;5.47;;;26.10;99.90;;;;;;4969446;28;20065;-68
2022/08/15 12:19:45;;;;;;;112.20;75.13;;;26.00;99.90;;;;;;4966246;28;20038;-68
2022/08/15 12:22:27;;;;;;;135.20;108.72;;;26.00;99.90;;;;;;4937098;28;20036;-68
2022/08/15 12:24:55;;;;;;;66.43;45.22;;;26.10;99.90;;;;;;4938318;29;20043;-68
2022/08/15 12:27:21;;;;;;;26.13;16.23;;;26.30;99.90;;;;;;4938480;29;20026;-67
2022/08/15 12:29:48;;;;;;;7.43;4.03;;;26.40;99.90;;;;;;4937986;29;20039;-67
2022/08/15 12:32:15;;;;;;;9.43;3.78;;;26.20;99.90;;;;;;4937979;29;20046;-67
2022/08/15 12:34:45;;;;;;;5.88;3.47;;;26.10;99.90;;;;;;4937727;29;20381;-67
2022/08/15 12:37:16;;;;;;;7.63;4.25;;;26.00;99.90;;;;;;4937921;29;20071;-67
2022/08/15 12:39:49;;;;;;;7.10;4.00;;;26.10;99.90;;;;;;4936903;29;20047;-67
2022/08/15 12:42:21;;;;;;;10.90;4.78;;;26.10;99.90;;;;;;4918451;29;20035;-68
2022/08/15 12:44:50;;;;;;;9.05;4.88;;;26.10;99.90;;;;;;4966281;28;20109;-67
2022/08/15 12:47:17;;;;;;;7.82;5.20;;;26.10;99.90;;;;;;4980832;28;20419;-68
2022/08/15 12:49:44;;;;;;;10.63;6.90;;;26.00;99.90;;;;;;4982890;28;20057;-67
2022/08/15 12:52:12;;;;;;;26.30;22.05;;;26.00;99.90;;;;;;4988720;28;20085;-69
2022/08/15 12:54:39;;;;;;;12.85;8.20;;;26.10;99.90;;;;;;4992883;28;20030;-70
2022/08/15 12:57:06;;;;;;;11.10;8.20;;;26.10;99.90;;;;;;4993081;28;20035;-69
2022/08/15 12:59:32;;;;;;;11.18;7.32;;;26.10;99.90;;;;;;4992919;28;20530;-69
2022/08/15 13:02:00;;;;;;;9.27;6.43;;;26.10;99.90;;;;;;4992582;28;20074;-68
2022/08/15 13:04:27;;;;;;;9.50;5.80;;;26.10;99.90;;;;;;4992173;28;20131;-65
2022/08/15 13:06:56;;;;;;;8.10;5.07;;;26.10;99.90;;;;;;4991930;28;20431;-64
2022/08/15 13:09:27;;;;;;;10.73;5.65;;;26.00;99.90;;;;;;4990877;28;20049;-65
2022/08/15 13:11:55;;;;;;;9.00;5.50;;;26.00;99.90;;;;;;4984295;28;20038;-64